Date,TemperatureHighF,TemperatureAvgF,TemperatureLowF,DewpointHighF,DewpointAvgF,DewpointLowF,HumidityHigh,HumidityAvg,HumidityLow,PressureMaxIn,PressureMinIn,WindSpeedMaxMPH,WindSpeedAvgMPH,GustSpeedMaxMPH,PrecipitationSumIn
2013-8-1,80.3,71.7,67.5,71.1,67.7,64.8,98,88,68,30.05,29.96,5,0,14,0.00
2013-8-2,83.0,70.5,61.5,69.8,65.0,60.4,99,84,56,30.09,30.00,5,0,14,0.00
2013-8-3,78.3,70.5,63.9,70.7,66.6,62.4,96,88,73,30.09,30.04,3,0,16,0.00
2013-8-4,77.2,71.6,66.5,70.2,66.5,60.5,97,85,61,30.09,30.04,3,0,10,0.00
2013-8-5,83.8,70.4,60.5,68.5,62.8,58.9,96,79,48,30.12,30.04,7,0,14,0.00
2013-8-6,81.1,71.9,64.7,71.4,66.8,62.5,96,85,70,30.06,30.00,5,0,14,0.01
2013-8-7,77.7,71.8,68.4,72.6,69.9,67.5,98,94,81,30.08,30.02,6,0,16,0.03
2013-8-8,82.1,72.9,68.5,73.7,70.2,67.9,99,91,74,30.10,30.03,7,0,17,0.05
2013-8-9,84.5,73.9,68.2,74.1,70.9,67.9,100,91,68,30.14,30.06,7,0,19,0.02
2013-8-10,73.9,72.1,69.6,73.0,70.8,68.8,99,96,92,30.17,30.11,9,0,16,1.64
2013-8-11,77.3,71.3,66.5,73.9,70.2,66.2,100,96,88,30.22,30.12,5,0,14,0.59
2013-8-12,76.8,72.0,67.1,73.9,70.2,66.5,100,94,87,30.17,30.03,6,0,16,0.04
2013-8-13,76.5,71.5,69.1,72.7,69.5,66.8,100,94,79,30.05,29.91,6,1,14,0.26
2013-8-14,73.7,68.5,64.6,68.0,65.2,61.0,98,89,72,30.08,29.95,2,0,9,0.00
2013-8-15,71.2,65.6,60.3,65.5,62.2,58.9,98,89,78,30.13,30.06,8,0,12,0.00
2013-8-16,70.2,63.5,58.1,64.6,59.6,56.7,98,87,71,30.17,30.09,1,0,7,0.00
2013-8-17,67.6,63.6,60.7,65.0,60.5,54.4,99,90,78,30.19,30.12,2,0,7,0.25
2013-8-18,69.0,64.9,62.7,67.9,64.5,62.4,100,99,95,30.26,30.16,7,0,17,0.62
2013-8-19,69.8,66.3,63.5,69.8,66.1,63.2,100,99,99,30.24,30.12,2,0,7,0.92
2013-8-20,73.2,68.5,63.9,71.2,67.5,63.8,100,97,87,30.24,30.15,1,0,9,0.01
2013-8-21,69.8,67.7,66.0,69.2,67.3,65.5,100,99,97,30.28,30.19,3,0,10,0.06
2013-8-22,79.4,70.7,63.9,73.6,68.3,63.6,100,93,73,30.25,30.10,6,0,16,0.00
2013-8-23,79.8,70.3,64.1,71.9,67.3,63.8,100,91,71,30.14,30.04,2,0,10,0.01
2013-8-24,79.2,68.4,61.5,70.2,64.2,60.7,100,88,57,30.32,30.12,3,0,10,0.00
2013-8-25,75.1,66.5,57.2,66.3,61.0,55.6,96,83,62,30.41,30.30,2,0,15,0.00
2013-8-26,75.8,67.6,59.3,67.9,63.1,58.1,98,86,66,30.37,30.20,1,0,6,0.00
2013-8-27,76.5,68.0,59.5,71.7,64.8,58.7,99,90,77,30.23,30.10,1,0,8,0.00
2013-8-28,81.5,72.5,64.8,74.0,68.2,63.8,99,87,69,30.14,30.03,2,0,8,0.00
2013-8-29,81.3,75.0,71.5,75.4,70.8,68.8,93,87,78,30.06,29.97,3,0,10,0.00
2013-8-30,83.6,73.7,65.3,73.1,69.4,64.7,100,88,64,30.07,29.97,5,0,14,0.00
2013-8-31,84.3,74.3,68.8,74.1,70.9,67.5,99,90,69,30.01,29.90,9,0,14,0.01